createdAt,value
2018-06-15T00:00:27.655Z,32.90
2018-06-15T00:03:01.665Z,33.03
2018-06-15T00:05:30.380Z,29.83
2018-06-15T00:08:00.098Z,28.93
2018-06-15T00:10:28.774Z,31.50
2018-06-15T00:12:57.978Z,36.23
2018-06-15T00:15:26.687Z,35.27
2018-06-15T00:17:55.377Z,34.63
2018-06-15T00:20:24.006Z,34.40
2018-06-15T00:22:52.641Z,31.23
2018-06-15T00:25:21.270Z,29.90
2018-06-15T00:27:49.935Z,30.10
2018-06-15T00:30:18.565Z,33.00
2018-06-15T00:32:47.207Z,32.70
2018-06-15T00:35:15.888Z,31.43
2018-06-15T00:37:44.564Z,32.77
2018-06-15T00:40:13.246Z,34.47
2018-06-15T00:42:41.930Z,33.27
2018-06-15T00:45:10.623Z,37.67
2018-06-15T00:47:39.222Z,34.97
2018-06-15T00:50:07.892Z,37.47
2018-06-15T00:52:36.550Z,40.70
2018-06-15T00:55:05.405Z,36.27
2018-06-15T00:57:45.155Z,38.13
2018-06-15T01:00:13.848Z,38.40
2018-06-15T01:02:42.573Z,44.63
2018-06-15T01:05:11.160Z,41.90
2018-06-15T01:07:39.903Z,37.37
2018-06-15T01:10:08.533Z,37.67
2018-06-15T01:12:37.197Z,37.83
2018-06-15T01:15:07.204Z,37.93
2018-06-15T01:17:36.162Z,53.60
2018-06-15T01:20:05.713Z,43.57
2018-06-15T01:22:34.383Z,43.97
2018-06-15T01:25:03.040Z,39.43
2018-06-15T01:27:31.712Z,45.30
2018-06-15T01:30:00.391Z,42.63
2018-06-15T01:32:29.028Z,44.43
2018-06-15T01:34:57.662Z,44.87
2018-06-15T01:37:26.309Z,39.17
2018-06-15T01:39:54.895Z,42.83
2018-06-15T01:42:23.545Z,49.17
2018-06-15T01:44:52.198Z,46.27
2018-06-15T01:47:20.894Z,40.23
2018-06-15T01:49:49.570Z,45.20
2018-06-15T01:52:18.202Z,49.70
2018-06-15T01:54:46.843Z,46.40
2018-06-15T01:57:15.521Z,46.27
2018-06-15T01:59:44.153Z,45.43
2018-06-15T02:02:12.783Z,46.00
2018-06-15T02:04:41.404Z,47.67
2018-06-15T02:07:11.023Z,51.27
2018-06-15T02:09:39.341Z,48.57
2018-06-15T02:12:07.954Z,49.80
2018-06-15T02:14:36.608Z,54.30
2018-06-15T02:17:05.602Z,50.43
2018-06-15T02:19:34.221Z,47.07
2018-06-15T02:22:02.882Z,51.07
2018-06-15T02:24:31.536Z,52.40
2018-06-15T02:27:00.182Z,49.57
2018-06-15T02:29:28.907Z,49.67
2018-06-15T02:31:57.506Z,49.30
2018-06-15T02:34:26.217Z,54.17
2018-06-15T02:36:54.789Z,51.55
2018-06-15T02:39:23.398Z,58.63
2018-06-15T02:41:51.980Z,56.67
2018-06-15T02:44:20.621Z,60.75
2018-06-15T02:46:49.233Z,55.65
2018-06-15T02:49:24.879Z,52.23
2018-06-15T02:51:53.567Z,56.18
2018-06-15T02:54:22.220Z,52.00
2018-06-15T02:56:50.917Z,60.92
2018-06-15T02:59:19.621Z,68.83
2018-06-15T03:01:48.567Z,62.90
2018-06-15T03:04:17.392Z,62.93
2018-06-15T03:06:46.042Z,57.10
2018-06-15T03:09:15.328Z,50.73
2018-06-15T03:11:44.056Z,56.70
2018-06-15T03:14:12.702Z,51.67
2018-06-15T03:16:41.349Z,56.03
2018-06-15T03:19:10.134Z,51.17
2018-06-15T03:21:38.787Z,45.70
2018-06-15T03:24:07.433Z,53.70
2018-06-15T03:26:36.056Z,51.10
2018-06-15T03:29:04.655Z,55.00
2018-06-15T03:31:33.399Z,49.10
2018-06-15T03:34:02.060Z,46.40
2018-06-15T03:36:30.699Z,54.50
2018-06-15T03:38:59.583Z,49.03
2018-06-15T03:41:28.230Z,51.77
2018-06-15T03:43:57.310Z,51.10
2018-06-15T03:46:25.903Z,52.63
2018-06-15T03:48:54.588Z,54.27
2018-06-15T03:51:23.199Z,46.73
2018-06-15T03:53:51.865Z,57.87
2018-06-15T03:56:20.494Z,49.20
2018-06-15T03:58:49.237Z,60.30
2018-06-15T04:01:17.845Z,57.27
2018-06-15T04:03:46.532Z,54.63
2018-06-15T04:06:15.180Z,52.40
2018-06-15T04:08:43.745Z,57.77
2018-06-15T04:11:12.505Z,60.17
2018-06-15T04:13:41.120Z,61.30
2018-06-15T04:16:09.766Z,58.10
2018-06-15T04:18:38.392Z,56.73
2018-06-15T04:21:07.229Z,65.00
2018-06-15T04:23:35.810Z,58.73
2018-06-15T04:26:04.448Z,52.13
2018-06-15T04:28:33.919Z,55.93
2018-06-15T04:31:02.538Z,57.67
2018-06-15T04:33:31.126Z,63.53
2018-06-15T04:35:59.742Z,62.00
2018-06-15T04:38:28.493Z,55.37
2018-06-15T04:40:57.082Z,51.97
2018-06-15T04:43:25.728Z,56.37
2018-06-15T04:45:54.385Z,56.67
2018-06-15T04:48:23.075Z,57.70
2018-06-15T04:50:51.733Z,52.80
2018-06-15T04:53:20.339Z,54.90
2018-06-15T04:55:48.989Z,61.67
2018-06-15T04:58:17.575Z,50.17
2018-06-15T05:00:46.190Z,49.83
2018-06-15T05:03:15.783Z,53.27
2018-06-15T05:05:45.278Z,59.50
2018-06-15T05:08:14.017Z,47.20
2018-06-15T05:10:43.486Z,48.87
2018-06-15T05:13:12.297Z,52.10
2018-06-15T05:15:40.931Z,48.67
2018-06-15T05:18:09.554Z,50.30
2018-06-15T05:20:38.307Z,54.03
2018-06-15T05:23:07.009Z,52.50
2018-06-15T05:25:35.621Z,47.70
2018-06-15T05:28:04.250Z,51.83
2018-06-15T05:30:33.096Z,55.10
2018-06-15T05:33:01.686Z,63.83
2018-06-15T05:35:30.386Z,60.53
2018-06-15T05:37:59.035Z,69.03
2018-06-15T05:40:27.810Z,45.33
2018-06-15T05:42:56.449Z,56.00
2018-06-15T05:45:25.125Z,50.17
2018-06-15T05:47:53.865Z,53.03
2018-06-15T05:50:22.533Z,77.03
2018-06-15T05:52:51.181Z,56.20
2018-06-15T05:55:19.891Z,60.23
2018-06-15T05:57:48.602Z,57.27
2018-06-15T06:00:17.197Z,71.30
2018-06-15T06:02:45.904Z,82.90
2018-06-15T06:05:14.538Z,64.23
2018-06-15T06:07:43.218Z,59.30
2018-06-15T06:10:11.959Z,81.40
2018-06-15T06:12:40.628Z,64.87
2018-06-15T06:15:09.206Z,60.93
2018-06-15T06:17:37.776Z,58.67
2018-06-15T06:20:07.968Z,54.23
2018-06-15T06:22:36.568Z,63.07
2018-06-15T06:25:05.527Z,53.33
2018-06-15T06:27:34.151Z,58.60
2018-06-15T06:30:02.989Z,51.70
2018-06-15T06:32:31.628Z,64.57
2018-06-15T06:35:00.208Z,45.27
2018-06-15T06:37:28.941Z,49.30
2018-06-15T06:39:57.242Z,47.53
2018-06-15T06:42:26.003Z,63.03
2018-06-15T06:44:54.638Z,45.10
2018-06-15T06:47:23.358Z,45.23
2018-06-15T06:49:52.147Z,53.63
2018-06-15T06:52:20.826Z,76.17
2018-06-15T06:54:49.487Z,78.73
2018-06-15T06:57:18.105Z,46.03
2018-06-15T06:59:46.657Z,44.60
2018-06-15T07:02:15.343Z,50.00
2018-06-15T07:04:44.048Z,47.70
2018-06-15T07:07:12.623Z,63.67
2018-06-15T07:09:41.297Z,60.63
2018-06-15T07:12:10.014Z,43.90
2018-06-15T07:14:38.623Z,40.50
2018-06-15T07:17:07.355Z,41.80
2018-06-15T07:19:36.030Z,40.80
2018-06-15T07:22:11.299Z,39.37
2018-06-15T07:24:39.900Z,47.33
2018-06-15T07:27:08.612Z,35.67
2018-06-15T07:29:37.313Z,66.37
2018-06-15T07:32:06.238Z,37.70
2018-06-15T07:34:35.389Z,61.53
2018-06-15T07:37:04.098Z,31.93
2018-06-15T07:39:33.014Z,53.33
2018-06-15T07:42:01.726Z,40.03
2018-06-15T07:44:30.421Z,39.30
2018-06-15T07:46:59.080Z,38.83
2018-06-15T07:49:27.701Z,53.13
2018-06-15T07:51:56.504Z,40.90
2018-06-15T07:54:25.141Z,45.70
2018-06-15T07:56:53.875Z,38.53
2018-06-15T07:59:22.611Z,42.53
2018-06-15T08:01:51.310Z,34.57
2018-06-15T08:04:21.279Z,37.40
2018-06-15T08:06:49.924Z,30.83
2018-06-15T08:09:18.985Z,33.37
2018-06-15T08:11:48.760Z,37.00
2018-06-15T08:14:17.411Z,32.77
2018-06-15T08:16:46.077Z,31.07
2018-06-15T08:19:14.731Z,29.00
2018-06-15T08:21:43.372Z,28.43
2018-06-15T08:24:12.026Z,32.93
2018-06-15T08:26:41.604Z,26.23
2018-06-15T08:29:11.068Z,30.37
2018-06-15T08:31:39.680Z,24.03
2018-06-15T08:34:08.308Z,29.00
2018-06-15T08:36:37.150Z,31.23
2018-06-15T08:39:08.914Z,26.50
2018-06-15T08:41:37.852Z,34.73
2018-06-15T08:44:08.279Z,25.13
2018-06-15T08:46:37.334Z,26.03
2018-06-15T08:49:06.063Z,25.73
2018-06-15T08:51:34.689Z,23.60
2018-06-15T08:54:03.349Z,28.90
2018-06-15T08:56:32.271Z,25.43
2018-06-15T08:59:01.885Z,21.27
2018-06-15T09:01:31.650Z,20.40
2018-06-15T09:04:00.324Z,22.40
2018-06-15T09:06:29.028Z,20.47
2018-06-15T09:08:57.964Z,18.23
2018-06-15T09:11:26.577Z,22.00
2018-06-15T09:13:55.292Z,16.40
2018-06-15T09:16:24.760Z,35.70
2018-06-15T09:18:53.407Z,23.90
2018-06-15T09:21:22.039Z,19.90
2018-06-15T09:23:50.693Z,24.60
2018-06-15T09:26:19.366Z,23.60
2018-06-15T09:28:48.072Z,26.20
2018-06-15T09:31:16.710Z,23.13
2018-06-15T09:33:45.348Z,22.90
2018-06-15T09:36:13.982Z,25.20
2018-06-15T09:38:42.598Z,24.40
2018-06-15T09:41:11.582Z,22.93
2018-06-15T09:43:40.241Z,22.20
2018-06-15T09:46:08.974Z,22.50
2018-06-15T09:48:41.626Z,24.33
2018-06-15T09:51:10.641Z,22.73
2018-06-15T09:53:39.297Z,22.57
2018-06-15T09:56:07.983Z,20.43
2018-06-15T09:58:37.541Z,17.30
2018-06-15T10:01:11.662Z,17.43
2018-06-15T10:03:40.916Z,16.50
2018-06-15T10:06:09.571Z,21.20
2018-06-15T10:08:38.378Z,18.97
2018-06-15T10:11:07.124Z,16.53
2018-06-15T10:13:35.856Z,18.07
2018-06-15T10:16:04.484Z,20.53
2018-06-15T10:18:33.130Z,18.60
2018-06-15T10:21:01.741Z,18.17
2018-06-15T10:23:30.654Z,19.87
2018-06-15T10:25:59.278Z,21.90
2018-06-15T10:28:27.910Z,21.33
2018-06-15T10:30:57.249Z,27.77
2018-06-15T10:33:25.891Z,15.30
2018-06-15T10:35:54.503Z,17.90
2018-06-15T10:38:23.110Z,13.63
2018-06-15T10:40:51.706Z,17.93
2018-06-15T10:43:20.570Z,21.00
2018-06-15T10:45:49.247Z,16.67
2018-06-15T10:48:17.893Z,24.30
2018-06-15T10:50:46.489Z,21.33
2018-06-15T10:53:15.142Z,18.37
2018-06-15T10:55:44.159Z,19.97
2018-06-15T10:58:12.781Z,18.13
2018-06-15T11:00:41.443Z,18.40
2018-06-15T11:03:10.073Z,15.93
2018-06-15T11:05:38.810Z,10.77
2018-06-15T11:08:07.418Z,15.33
2018-06-15T11:10:36.136Z,18.80
2018-06-15T11:13:04.807Z,14.03
2018-06-15T11:15:33.388Z,18.20
2018-06-15T11:18:02.023Z,14.63
2018-06-15T11:20:30.659Z,16.13
2018-06-15T11:22:59.365Z,12.63
2018-06-15T11:25:28.071Z,15.33
2018-06-15T11:27:56.711Z,16.30
2018-06-15T11:30:25.496Z,12.67
2018-06-15T11:32:54.318Z,13.70
2018-06-15T11:35:22.957Z,15.67
2018-06-15T11:37:51.582Z,20.40
2018-06-15T11:40:20.245Z,14.87
2018-06-15T11:42:49.057Z,14.87
2018-06-15T11:45:17.769Z,18.40
2018-06-15T11:47:46.555Z,18.23
2018-06-15T11:50:16.628Z,18.47
2018-06-15T11:52:45.318Z,16.30
2018-06-15T11:55:14.033Z,16.57
2018-06-15T11:57:42.808Z,31.23
2018-06-15T12:00:11.536Z,18.03
2018-06-15T12:02:40.367Z,19.50
2018-06-15T12:05:09.105Z,15.00
2018-06-15T12:07:37.742Z,14.63
2018-06-15T12:10:06.417Z,12.53
2018-06-15T12:12:35.866Z,15.40
2018-06-15T12:15:04.661Z,11.80
2018-06-15T12:17:33.605Z,11.83
2018-06-15T12:20:02.246Z,11.30
2018-06-15T12:22:30.909Z,16.77
2018-06-15T12:24:59.744Z,10.77
2018-06-15T12:27:28.444Z,12.80
2018-06-15T12:29:57.154Z,9.33
2018-06-15T12:32:25.755Z,11.80
2018-06-15T12:34:54.646Z,9.77
2018-06-15T12:37:23.465Z,11.20
2018-06-15T12:39:52.331Z,12.83
2018-06-15T12:42:21.024Z,11.80
2018-06-15T12:44:49.749Z,14.30
2018-06-15T12:47:18.632Z,11.60
2018-06-15T12:49:47.411Z,17.23
2018-06-15T12:52:16.109Z,9.53
2018-06-15T12:54:44.839Z,10.63
2018-06-15T12:57:13.468Z,9.40
2018-06-15T12:59:42.068Z,14.67
2018-06-15T13:02:10.390Z,14.57
2018-06-15T13:04:38.989Z,14.00
2018-06-15T13:07:09.008Z,14.20
2018-06-15T13:09:37.719Z,21.03
2018-06-15T13:12:06.368Z,14.63
2018-06-15T13:14:35.055Z,14.00
2018-06-15T13:17:04.164Z,14.13
2018-06-15T13:19:32.994Z,12.60
2018-06-15T13:22:01.759Z,14.30
2018-06-15T13:24:35.548Z,15.27
2018-06-15T13:27:04.391Z,17.33
2018-06-15T13:29:33.404Z,12.90
2018-06-15T13:32:02.110Z,14.50
2018-06-15T13:34:31.100Z,13.77
2018-06-15T13:36:59.787Z,18.30
2018-06-15T13:39:28.588Z,17.20
2018-06-15T13:41:57.494Z,17.90
2018-06-15T13:44:26.124Z,18.37
2018-06-15T13:46:54.951Z,16.30
2018-06-15T13:49:23.828Z,20.90
2018-06-15T13:51:53.506Z,17.27
2018-06-15T13:54:22.267Z,17.60
2018-06-15T13:56:51.657Z,17.90
2018-06-15T13:59:20.316Z,21.90
2018-06-15T14:01:49.467Z,14.30
2018-06-15T14:04:18.261Z,14.10
2018-06-15T14:06:46.923Z,15.03
2018-06-15T14:09:15.616Z,22.80
2018-06-15T14:11:44.365Z,19.80
2018-06-15T14:14:13.261Z,17.03
2018-06-15T14:16:44.017Z,20.73
2018-06-15T14:19:12.724Z,18.33
2018-06-15T14:21:41.037Z,13.60
2018-06-15T14:24:09.845Z,19.00
2018-06-15T14:26:38.577Z,14.73
2018-06-15T14:29:07.435Z,16.37
2018-06-15T14:31:36.171Z,17.30
2018-06-15T14:34:04.879Z,19.87
2018-06-15T14:36:33.789Z,15.97
2018-06-15T14:39:02.504Z,17.50
2018-06-15T14:41:31.259Z,17.40
2018-06-15T14:44:00.079Z,17.10
2018-06-15T14:46:28.836Z,16.57
2018-06-15T14:48:57.833Z,15.53
2018-06-15T14:51:26.593Z,18.70
2018-06-15T14:53:55.419Z,19.97
2018-06-15T14:56:24.206Z,14.50
2018-06-15T14:58:52.866Z,11.63
2018-06-15T15:01:21.585Z,13.90
2018-06-15T15:03:50.206Z,18.17
2018-06-15T15:06:18.832Z,12.40
2018-06-15T15:08:47.550Z,14.77
2018-06-15T15:11:16.266Z,16.90
2018-06-15T15:13:44.924Z,11.67
2018-06-15T15:16:13.658Z,11.37
2018-06-15T15:18:42.372Z,12.70
2018-06-15T15:21:11.043Z,12.37
2018-06-15T15:23:39.738Z,16.53
2018-06-15T15:26:08.490Z,11.07
2018-06-15T15:28:37.155Z,8.20
2018-06-15T15:31:05.836Z,8.83
2018-06-15T15:33:34.632Z,9.30
2018-06-15T15:36:03.692Z,11.60
2018-06-15T15:38:32.372Z,10.10
2018-06-15T15:41:01.150Z,7.90
2018-06-15T15:43:29.860Z,12.37
2018-06-15T15:45:58.486Z,9.00
2018-06-15T15:48:27.159Z,8.30
2018-06-15T15:50:55.859Z,7.07
2018-06-15T15:53:24.191Z,7.93
2018-06-15T15:55:52.859Z,7.27
2018-06-15T15:58:22.151Z,7.90
2018-06-15T16:00:50.995Z,8.07
2018-06-15T16:03:19.671Z,7.30
2018-06-15T16:05:48.311Z,10.90
2018-06-15T16:08:17.052Z,8.57
2018-06-15T16:10:45.750Z,11.00
2018-06-15T16:13:14.461Z,8.17
2018-06-15T16:15:43.209Z,7.03
2018-06-15T16:18:11.918Z,7.70
2018-06-15T16:20:40.586Z,8.37
2018-06-15T16:23:09.349Z,8.90
2018-06-15T16:25:37.976Z,11.10
2018-06-15T16:28:06.395Z,9.07
2018-06-15T16:30:35.114Z,7.73
2018-06-15T16:33:03.958Z,6.73
2018-06-15T16:35:32.692Z,11.67
2018-06-15T16:38:01.405Z,6.23
2018-06-15T16:40:30.011Z,8.90
2018-06-15T16:42:58.601Z,10.33
2018-06-15T16:45:27.232Z,9.40
2018-06-15T16:47:55.866Z,12.10
2018-06-15T16:50:24.591Z,10.00
2018-06-15T16:52:53.321Z,12.73
2018-06-15T16:55:22.109Z,11.17
2018-06-15T16:57:51.080Z,8.53
2018-06-15T17:00:19.805Z,8.53
2018-06-15T17:02:48.589Z,8.43
2018-06-15T17:05:17.201Z,8.43
2018-06-15T17:07:45.845Z,6.37
2018-06-15T17:10:14.608Z,7.00
2018-06-15T17:12:43.243Z,8.70
2018-06-15T17:15:12.006Z,6.77
2018-06-15T17:17:40.685Z,7.47
2018-06-15T17:20:09.322Z,8.50
2018-06-15T17:22:37.966Z,7.03
2018-06-15T17:25:06.631Z,7.30
2018-06-15T17:27:35.294Z,10.60
2018-06-15T17:30:04.070Z,6.60
2018-06-15T17:32:32.718Z,7.70
2018-06-15T17:35:01.459Z,11.63
2018-06-15T17:37:30.581Z,7.50
2018-06-15T17:39:59.287Z,7.83
2018-06-15T17:42:27.991Z,10.27
2018-06-15T17:44:56.859Z,12.73
2018-06-15T17:47:25.488Z,8.17
2018-06-15T17:49:54.125Z,6.73
2018-06-15T17:52:22.796Z,8.90
2018-06-15T17:54:51.526Z,8.90
2018-06-15T17:57:20.105Z,10.23
2018-06-15T17:59:51.841Z,7.47
2018-06-15T18:02:20.532Z,7.67
2018-06-15T18:04:49.268Z,6.93
2018-06-15T18:07:17.983Z,6.97
2018-06-15T18:09:46.743Z,7.27
2018-06-15T18:12:15.508Z,8.13
2018-06-15T18:14:44.080Z,10.37
2018-06-15T18:17:12.808Z,10.07
2018-06-15T18:19:41.334Z,7.30
2018-06-15T18:22:10.031Z,10.70
2018-06-15T18:24:38.283Z,7.60
2018-06-15T18:27:07.237Z,10.93
2018-06-15T18:29:35.942Z,9.40
2018-06-15T18:32:04.678Z,10.27
2018-06-15T18:34:33.411Z,7.63
2018-06-15T18:37:02.080Z,9.50
2018-06-15T18:39:30.820Z,8.60
2018-06-15T18:41:59.494Z,10.10
2018-06-15T18:44:28.186Z,9.80
2018-06-15T18:46:56.899Z,9.27
2018-06-15T18:49:25.565Z,16.10
2018-06-15T18:51:54.145Z,16.53
2018-06-15T18:54:22.799Z,11.13
2018-06-15T18:56:51.393Z,10.33
2018-06-15T18:59:20.013Z,9.77
2018-06-15T19:01:48.744Z,9.33
2018-06-15T19:04:17.430Z,13.57
2018-06-15T19:06:46.055Z,15.63
2018-06-15T19:09:14.782Z,10.20
2018-06-15T19:11:43.399Z,10.57
2018-06-15T19:14:12.030Z,12.20
2018-06-15T19:16:40.725Z,12.93
2018-06-15T19:19:09.451Z,10.50
2018-06-15T19:21:38.254Z,12.33
2018-06-15T19:24:07.046Z,12.00
2018-06-15T19:26:35.722Z,14.13
2018-06-15T19:29:04.494Z,12.73
2018-06-15T19:31:33.008Z,11.00
2018-06-15T19:34:01.710Z,10.47
2018-06-15T19:36:30.439Z,10.90
2018-06-15T19:38:59.076Z,11.33
2018-06-15T19:41:27.773Z,8.70
2018-06-15T19:43:56.402Z,17.23
2018-06-15T19:46:25.303Z,9.93
2018-06-15T19:48:54.367Z,11.53
2018-06-15T19:51:23.047Z,12.23
2018-06-15T19:53:51.724Z,12.30
2018-06-15T19:56:20.390Z,12.23
2018-06-15T19:58:49.080Z,11.73
2018-06-15T20:01:18.052Z,10.40
2018-06-15T20:03:46.703Z,11.83
2018-06-15T20:06:15.324Z,11.90
2018-06-15T20:08:43.939Z,11.97
2018-06-15T20:11:12.623Z,15.23
2018-06-15T20:13:41.235Z,13.40
2018-06-15T20:16:09.938Z,13.60
2018-06-15T20:18:38.614Z,11.57
2018-06-15T20:21:07.414Z,14.03
2018-06-15T20:23:36.014Z,14.50
2018-06-15T20:26:04.437Z,12.40
2018-06-15T20:28:33.054Z,15.57
2018-06-15T20:31:01.695Z,12.00
2018-06-15T20:33:30.383Z,11.33
2018-06-15T20:35:59.056Z,12.50
2018-06-15T20:38:28.168Z,13.20
2018-06-15T20:40:56.757Z,11.60
2018-06-15T20:43:25.384Z,11.90
2018-06-15T20:45:54.002Z,13.23
2018-06-15T20:48:22.683Z,12.47
2018-06-15T20:50:51.249Z,11.40
2018-06-15T20:53:19.851Z,12.60
2018-06-15T20:55:48.436Z,12.73
2018-06-15T20:58:17.037Z,11.67
2018-06-15T21:00:45.659Z,12.70
2018-06-15T21:03:14.401Z,13.43
2018-06-15T21:05:43.056Z,14.67
2018-06-15T21:08:11.773Z,13.63
2018-06-15T21:10:40.383Z,14.80
2018-06-15T21:13:08.974Z,13.40
2018-06-15T21:15:37.655Z,15.07
2018-06-15T21:18:06.356Z,14.20
2018-06-15T21:20:34.947Z,14.23
2018-06-15T21:23:03.680Z,13.57
2018-06-15T21:25:32.366Z,13.13
2018-06-15T21:28:00.981Z,13.37
2018-06-15T21:30:29.649Z,15.90
2018-06-15T21:32:58.269Z,16.17
2018-06-15T21:35:26.874Z,15.30
2018-06-15T21:37:55.516Z,16.00
2018-06-15T21:40:24.117Z,17.03
2018-06-15T21:42:52.766Z,13.33
2018-06-15T21:45:21.377Z,17.67
2018-06-15T21:47:50.074Z,18.03
2018-06-15T21:50:18.685Z,16.67
2018-06-15T21:52:47.381Z,15.50
2018-06-15T21:55:16.125Z,14.73
2018-06-15T21:57:44.754Z,16.70
2018-06-15T22:00:13.392Z,15.13
2018-06-15T22:02:41.979Z,18.20
2018-06-15T22:05:10.755Z,15.60
2018-06-15T22:07:39.521Z,22.40
2018-06-15T22:10:08.211Z,21.50
2018-06-15T22:12:36.922Z,20.20
2018-06-15T22:15:05.676Z,25.57
2018-06-15T22:17:34.503Z,21.13
2018-06-15T22:20:03.143Z,21.30
2018-06-15T22:22:31.711Z,20.23
2018-06-15T22:25:00.402Z,18.57
2018-06-15T22:27:30.233Z,23.83
2018-06-15T22:29:58.882Z,20.80
2018-06-15T22:32:27.605Z,26.93
2018-06-15T22:34:56.248Z,30.57
2018-06-15T22:37:25.035Z,26.97
2018-06-15T22:39:53.714Z,49.67
2018-06-15T22:42:22.374Z,34.80
2018-06-15T22:44:51.019Z,52.63
2018-06-15T22:47:19.749Z,57.53
2018-06-15T22:49:48.362Z,98.53
2018-06-15T22:52:17.071Z,106.53
2018-06-15T22:54:45.693Z,48.73
2018-06-15T22:57:14.389Z,46.40
2018-06-15T22:59:43.090Z,38.40
2018-06-15T23:02:11.868Z,29.90
2018-06-15T23:04:40.640Z,50.40
2018-06-15T23:07:09.302Z,52.00
2018-06-15T23:09:37.967Z,21.83
2018-06-15T23:12:06.676Z,49.23
2018-06-15T23:14:35.523Z,20.17
2018-06-15T23:17:04.205Z,21.57
2018-06-15T23:19:32.842Z,23.43
2018-06-15T23:22:01.611Z,23.33
2018-06-15T23:24:30.425Z,28.63
2018-06-15T23:26:59.087Z,26.87
2018-06-15T23:29:27.757Z,24.10
2018-06-15T23:31:56.420Z,23.97
2018-06-15T23:34:25.063Z,27.00
2018-06-15T23:36:53.665Z,24.93
2018-06-15T23:39:22.297Z,22.27
2018-06-15T23:41:50.981Z,24.60
2018-06-15T23:44:19.590Z,26.27
2018-06-15T23:46:48.235Z,25.33
2018-06-15T23:49:16.889Z,30.87
2018-06-15T23:51:45.650Z,26.17
2018-06-15T23:54:14.310Z,28.60
2018-06-15T23:56:43.027Z,28.23
2018-06-15T23:59:11.657Z,33.30
